MSVA4: Spavinaw Creek nr Maysville AR

Data processed at Tue May 21 2019 23:50


All information presented herein is the property of the government of the United States of America and may be revised or deleted at any time without prior notice.
Dissemination of this information without the expressed written consent of the Public Affairs Office, Tulsa District U.S. Army Corps of Engineers is strictly prohibited.
These data are gathered electronically and, as presented, have not undergone any form of quality control. These data are not guaranteed to be valid or correct.
Go to home page.
Go to station list.
Go to home page.

Downstream station:


Previous Day
Next Day
Current Day
    
SHEF ID:       MSVA4     Spavinaw Creek near Maysville, A
STATION TYPE:  

               PRECIP     STAGE  RIV-FLOW  BAT-LOAD
                   in        ft       cfs      volt
              Ccp-Rev   Ccp-Rev   Ccp-Rev   Ccp-Rev
(US/Central)
05/21 00:00      0.93      7.45        13     12.41
05/21 01:00      1.11      7.79        36     12.33
05/21 02:00      0.02      9.06       444     12.41
05/21 03:00      0.00     10.32      1333     12.33
05/21 04:00      0.00     10.53      1484     12.41
05/21 05:00      0.00     10.10      1181     12.33
05/21 06:00      0.00      9.90      1041     12.33
05/21 07:00      0.00      9.84       999     12.33
05/21 08:00      0.00      9.73       918     12.41
05/21 09:00      0.00      9.59       819     12.57
05/21 10:00      0.33      9.48       740     12.41
05/21 11:00      0.89      9.65       861     12.33
05/21 12:00      0.15     10.30      1319     12.41
05/21 13:00      0.01     11.31      2095     12.57
05/21 14:00      0.07     11.85      2593     12.73
05/21 15:00      0.02     11.63      2380     12.81
05/21 16:00      0.00     11.37      2150     12.97
05/21 17:00      0.00     11.31      2095     13.13
05/21 18:00      0.00     11.17      1971     12.89
05/21 19:00      0.00     11.00      1844     12.97
05/21 20:00      0.00     10.78      1666     12.73
05/21 21:00      0.00     10.56      1507     12.57
05/21 22:00      0.00     10.38      1375     12.57
05/21 23:00      0.00     10.22      1264     12.49